Time;durP1;ratioP1;P1;durP2;ratioP2;P2;SDS_P1;SDS_P2;PMS_P1;PMS_P2;Temp;Humidity;BMP_temperature;BMP_pressure;BME280_temperature;BME280_humidity;BME280_pressure;Samples;Min_cycle;Max_cycle;Signal;HPM_P1;HPM_P2
2021/03/04 00:03:10;;;;;;;32.60;7.72;;;5.40;99.90;;;;;;10209062;28;20094;-49
2021/03/04 00:08:31;;;;;;;36.40;9.70;;;5.50;99.90;;;;;;10203115;28;20494;-49
2021/03/04 00:13:52;;;;;;;37.03;9.95;;;5.60;99.90;;;;;;10204677;28;20130;-49
2021/03/04 00:19:14;;;;;;;37.05;10.13;;;5.50;99.90;;;;;;10207923;28;20096;-49
2021/03/04 00:24:35;;;;;;;36.20;9.18;;;5.30;99.90;;;;;;10200662;28;21842;-49
2021/03/04 00:29:56;;;;;;;35.00;10.27;;;5.40;99.90;;;;;;10200566;28;20043;-49
2021/03/04 00:35:17;;;;;;;32.80;10.32;;;5.30;99.90;;;;;;10205952;28;20109;-49
2021/03/04 00:40:38;;;;;;;27.55;9.02;;;5.40;99.90;;;;;;10202521;28;20046;-49
2021/03/04 00:45:59;;;;;;;35.00;10.18;;;5.50;99.90;;;;;;10200531;28;20039;-49
2021/03/04 00:51:20;;;;;;;30.98;10.45;;;5.50;99.90;;;;;;10208459;28;20039;-49
2021/03/04 00:56:41;;;;;;;35.85;10.68;;;5.50;99.90;;;;;;10208527;28;20031;-49
2021/03/04 01:02:02;;;;;;;39.95;10.02;;;5.40;99.90;;;;;;10203488;28;20036;-49
2021/03/04 01:07:23;;;;;;;38.30;8.27;;;5.50;99.90;;;;;;10203204;28;20054;-49
2021/03/04 01:12:44;;;;;;;19.45;6.88;;;5.40;99.90;;;;;;10206492;28;20125;-49
2021/03/04 01:18:06;;;;;;;25.90;6.88;;;5.40;99.90;;;;;;10200124;28;20043;-49
2021/03/04 01:23:27;;;;;;;32.08;8.07;;;5.30;99.90;;;;;;10196784;28;20045;-49
2021/03/04 01:28:48;;;;;;;35.10;8.98;;;5.20;99.90;;;;;;10203093;28;20051;-49
2021/03/04 01:34:09;;;;;;;31.45;7.80;;;5.20;99.90;;;;;;10199076;28;20039;-49
2021/03/04 01:39:30;;;;;;;27.52;7.05;;;5.20;99.90;;;;;;10200966;28;20043;-49
2021/03/04 01:44:51;;;;;;;18.85;6.93;;;5.10;99.90;;;;;;10199322;28;20487;-49
2021/03/04 01:50:13;;;;;;;26.23;8.20;;;5.10;99.90;;;;;;10200651;28;20137;-49
2021/03/04 01:55:34;;;;;;;17.88;7.20;;;5.10;99.90;;;;;;10198366;28;20047;-49
2021/03/04 02:00:56;;;;;;;12.95;5.30;;;5.20;99.90;;;;;;10199846;28;20579;-49
2021/03/04 02:06:21;;;;;;;23.52;7.70;;;5.20;99.90;;;;;;10197632;28;20510;-49
2021/03/04 02:11:56;;;;;;;23.25;6.50;;;5.00;99.90;;;;;;10194194;28;20487;-49
2021/03/04 02:17:20;;;;;;;18.42;5.38;;;5.00;99.90;;;;;;10190517;28;20679;-49
2021/03/04 02:22:56;;;;;;;25.88;7.53;;;5.00;99.90;;;;;;10202942;28;20569;-49
2021/03/04 02:28:20;;;;;;;37.78;7.90;;;4.90;99.90;;;;;;10199688;28;20047;-49
2021/03/04 02:33:43;;;;;;;35.33;10.07;;;4.90;99.90;;;;;;10194425;28;20043;-49
2021/03/04 02:39:06;;;;;;;17.08;4.90;;;4.90;99.90;;;;;;10196545;28;20802;-49
2021/03/04 02:44:27;;;;;;;19.33;7.00;;;4.90;99.90;;;;;;10200114;28;20372;-49
2021/03/04 02:49:48;;;;;;;19.42;6.95;;;4.90;99.90;;;;;;10200683;28;20043;-49
2021/03/04 02:55:11;;;;;;;30.55;7.78;;;4.90;99.90;;;;;;10205961;28;20061;-49
2021/03/04 03:00:32;;;;;;;18.27;5.93;;;4.90;99.90;;;;;;10203643;28;20066;-49
2021/03/04 03:05:53;;;;;;;15.80;4.60;;;5.00;99.90;;;;;;10208981;28;20039;-49
2021/03/04 03:11:18;;;;;;;22.75;5.78;;;4.90;99.90;;;;;;10206012;28;20051;-49
2021/03/04 03:16:39;;;;;;;18.95;6.15;;;4.90;99.90;;;;;;10203954;28;20047;-49
2021/03/04 03:22:00;;;;;;;16.90;5.20;;;4.90;99.90;;;;;;10205143;28;20047;-49
2021/03/04 03:27:21;;;;;;;17.75;5.53;;;4.90;99.90;;;;;;10204618;28;20063;-49
2021/03/04 03:32:46;;;;;;;19.45;6.43;;;4.90;99.90;;;;;;10200693;28;20039;-49
2021/03/04 03:38:07;;;;;;;19.98;6.72;;;4.80;99.90;;;;;;10201879;28;20040;-49
2021/03/04 03:43:29;;;;;;;19.55;5.40;;;4.70;99.90;;;;;;10202186;28;20047;-49
2021/03/04 03:48:50;;;;;;;9.77;4.03;;;4.70;99.90;;;;;;10206828;28;20507;-49
2021/03/04 03:54:13;;;;;;;19.10;5.03;;;4.70;99.90;;;;;;10201995;28;20040;-49
2021/03/04 03:59:35;;;;;;;21.98;6.38;;;4.70;99.90;;;;;;10213145;28;20380;-49
2021/03/04 04:04:56;;;;;;;17.42;5.88;;;4.60;99.90;;;;;;10210678;28;20127;-49
2021/03/04 04:10:18;;;;;;;18.17;4.78;;;4.60;99.90;;;;;;10209991;28;20075;-49
2021/03/04 04:15:39;;;;;;;16.08;3.78;;;4.70;99.90;;;;;;10213085;28;20499;-49
2021/03/04 04:21:00;;;;;;;11.95;4.63;;;4.70;99.90;;;;;;10212295;28;20047;-49
2021/03/04 04:26:21;;;;;;;13.68;3.17;;;4.70;99.90;;;;;;10206474;28;20500;-49
2021/03/04 04:31:42;;;;;;;19.33;5.30;;;4.60;99.90;;;;;;10213590;28;20055;-49
2021/03/04 04:37:03;;;;;;;19.70;4.60;;;4.50;99.90;;;;;;10210712;28;20114;-49
2021/03/04 04:42:24;;;;;;;14.25;4.05;;;4.50;99.90;;;;;;10205442;28;20038;-49
2021/03/04 04:47:45;;;;;;;9.10;3.50;;;4.60;99.90;;;;;;10204685;28;20044;-49
2021/03/04 04:53:06;;;;;;;13.77;3.88;;;4.50;99.90;;;;;;10205256;28;20043;-49
2021/03/04 04:58:27;;;;;;;14.05;4.13;;;4.50;99.90;;;;;;10207897;28;20121;-49
2021/03/04 05:03:47;;;;;;;17.92;5.90;;;4.60;99.90;;;;;;10202993;28;20074;-49
2021/03/04 05:09:08;;;;;;;15.98;5.55;;;4.60;99.90;;;;;;10200718;28;20129;-49
2021/03/04 05:14:30;;;;;;;11.15;4.53;;;4.70;99.90;;;;;;10203386;28;20047;-49
2021/03/04 05:19:50;;;;;;;13.98;5.45;;;4.70;99.90;;;;;;10206746;29;20123;-49
2021/03/04 05:25:12;;;;;;;16.67;6.15;;;4.60;99.90;;;;;;10208780;28;20491;-49
2021/03/04 05:30:33;;;;;;;17.23;5.05;;;4.70;99.90;;;;;;10204886;28;20050;-49
2021/03/04 05:35:54;;;;;;;25.02;6.60;;;4.70;99.90;;;;;;10205667;28;20039;-49
2021/03/04 05:41:22;;;;;;;23.25;5.90;;;4.60;99.90;;;;;;10204849;28;20126;-49
2021/03/04 05:46:46;;;;;;;23.27;6.22;;;4.60;99.90;;;;;;10205301;28;20133;-49
2021/03/04 05:52:08;;;;;;;11.25;4.20;;;4.60;99.90;;;;;;10204213;28;20090;-49
2021/03/04 05:57:30;;;;;;;12.20;4.15;;;4.70;99.90;;;;;;10204725;28;20085;-49
2021/03/04 06:02:51;;;;;;;12.00;4.55;;;4.60;99.90;;;;;;10200073;28;20030;-49
2021/03/04 06:08:12;;;;;;;16.40;5.28;;;4.50;99.90;;;;;;10205384;28;22498;-49
2021/03/04 06:13:33;;;;;;;15.43;4.22;;;4.60;99.90;;;;;;10205968;28;20044;-49
2021/03/04 06:18:54;;;;;;;15.95;3.80;;;4.60;99.90;;;;;;10187209;28;20511;-49
2021/03/04 06:24:15;;;;;;;12.65;5.18;;;4.50;99.90;;;;;;10203081;28;20039;-49
2021/03/04 06:29:36;;;;;;;17.90;5.22;;;4.60;99.90;;;;;;10200203;28;20599;-49
2021/03/04 06:35:12;;;;;;;15.50;5.35;;;4.50;99.90;;;;;;10195888;29;20050;-49
2021/03/04 06:40:34;;;;;;;20.80;4.88;;;4.50;99.90;;;;;;10200405;29;20471;-49
2021/03/04 06:46:03;;;;;;;13.52;5.20;;;4.60;99.90;;;;;;10198632;28;20302;-49
2021/03/04 06:51:24;;;;;;;15.18;5.25;;;4.60;99.90;;;;;;10202291;29;20031;-49
2021/03/04 06:56:45;;;;;;;17.77;3.65;;;4.60;99.90;;;;;;10201376;28;20089;-49
2021/03/04 07:02:07;;;;;;;13.45;4.82;;;4.50;99.90;;;;;;10205357;28;20114;-49
2021/03/04 07:07:28;;;;;;;22.15;5.68;;;4.60;99.90;;;;;;10203553;28;20051;-49
2021/03/04 07:12:50;;;;;;;17.20;4.68;;;4.60;99.90;;;;;;10198813;28;20487;-49
2021/03/04 07:18:12;;;;;;;19.10;5.07;;;4.70;99.90;;;;;;10199364;28;20065;-49
2021/03/04 07:23:38;;;;;;;19.55;5.28;;;4.60;99.90;;;;;;10203308;28;20050;-49
2021/03/04 07:29:04;;;;;;;19.83;4.45;;;4.60;99.90;;;;;;10198021;29;20122;-49
2021/03/04 07:34:26;;;;;;;21.77;5.15;;;4.60;99.90;;;;;;10209155;28;20083;-49
2021/03/04 07:39:58;;;;;;;26.52;7.47;;;4.60;99.90;;;;;;10209776;28;20040;-49
2021/03/04 07:45:19;;;;;;;22.35;6.13;;;4.70;99.90;;;;;;10211224;28;20032;-49
2021/03/04 07:50:42;;;;;;;21.50;5.78;;;4.70;99.90;;;;;;10211133;28;20048;-49
2021/03/04 07:56:03;;;;;;;13.77;4.57;;;4.70;99.90;;;;;;10208870;28;20507;-49
2021/03/04 08:01:24;;;;;;;22.85;6.25;;;4.70;99.90;;;;;;10206181;28;20047;-49
2021/03/04 08:06:46;;;;;;;14.95;5.05;;;4.90;99.90;;;;;;10208115;28;20074;-49
2021/03/04 08:12:11;;;;;;;17.45;4.68;;;4.80;99.90;;;;;;10205551;28;20075;-49
2021/03/04 08:17:36;;;;;;;18.00;4.85;;;4.80;99.90;;;;;;10210835;28;20502;-49
2021/03/04 08:22:58;;;;;;;17.08;4.28;;;4.80;99.90;;;;;;10205701;29;20040;-49
2021/03/04 08:28:22;;;;;;;20.00;5.57;;;4.80;99.90;;;;;;10213135;29;20136;-49
2021/03/04 08:33:54;;;;;;;21.02;5.45;;;4.80;99.90;;;;;;10207179;28;20062;-49
2021/03/04 08:39:16;;;;;;;16.15;5.18;;;4.80;99.90;;;;;;10220765;28;20043;-49
2021/03/04 08:44:45;;;;;;;18.17;4.28;;;4.80;99.90;;;;;;10209722;29;20509;-49
2021/03/04 08:50:07;;;;;;;13.93;4.80;;;4.90;99.90;;;;;;10223811;29;20723;-49
2021/03/04 08:55:28;;;;;;;18.42;5.28;;;4.90;99.90;;;;;;10209572;28;20050;-49
2021/03/04 09:00:51;;;;;;;11.77;4.78;;;4.80;99.90;;;;;;10208290;28;20043;-49
2021/03/04 09:06:16;;;;;;;13.43;3.47;;;4.90;99.90;;;;;;10206096;29;20122;-50
2021/03/04 09:11:38;;;;;;;13.25;3.25;;;4.90;99.90;;;;;;10197835;28;20043;-49
2021/03/04 09:17:01;;;;;;;12.60;2.90;;;5.00;99.90;;;;;;10208005;28;20443;-49
2021/03/04 09:22:23;;;;;;;9.43;3.00;;;5.00;99.90;;;;;;10209247;28;20055;-49
2021/03/04 09:27:44;;;;;;;11.07;3.67;;;5.00;99.90;;;;;;10207264;28;20077;-49
2021/03/04 09:33:24;;;;;;;15.48;4.22;;;5.00;99.90;;;;;;10209474;28;20669;-49
2021/03/04 09:38:55;;;;;;;6.53;1.77;;;4.90;99.90;;;;;;10210448;28;20039;-49
2021/03/04 09:44:16;;;;;;;9.90;2.80;;;5.00;99.90;;;;;;10199013;28;20040;-49
2021/03/04 09:49:37;;;;;;;9.68;2.50;;;5.10;99.90;;;;;;10210151;29;20053;-49
2021/03/04 09:55:11;;;;;;;6.35;1.42;;;5.10;99.90;;;;;;10205316;28;20492;-49
2021/03/04 10:00:32;;;;;;;3.90;1.10;;;5.00;99.90;;;;;;10209043;28;20047;-49
2021/03/04 10:05:53;;;;;;;4.88;1.00;;;5.00;99.90;;;;;;10209797;28;20446;-49
2021/03/04 10:11:25;;;;;;;2.88;0.70;;;4.90;99.90;;;;;;10205979;28;20142;-49
2021/03/04 10:16:55;;;;;;;5.65;1.83;;;4.90;99.90;;;;;;10209116;28;20403;-49
2021/03/04 10:22:16;;;;;;;6.07;0.93;;;4.90;99.90;;;;;;10208223;28;20052;-49
2021/03/04 10:27:38;;;;;;;3.70;1.33;;;4.90;99.90;;;;;;10209814;29;20043;-49
2021/03/04 10:33:03;;;;;;;3.47;1.23;;;4.80;99.90;;;;;;10205421;28;20035;-48
2021/03/04 10:38:24;;;;;;;4.22;1.73;;;4.80;99.90;;;;;;10207587;28;20039;-48
2021/03/04 10:43:45;;;;;;;10.48;1.42;;;4.90;99.90;;;;;;10206023;28;20050;-48
2021/03/04 10:49:07;;;;;;;8.25;2.22;;;5.00;99.90;;;;;;10203806;28;20048;-48
2021/03/04 10:54:28;;;;;;;2.83;0.90;;;5.20;99.90;;;;;;10205526;28;20463;-49
2021/03/04 10:59:49;;;;;;;3.80;1.27;;;5.30;99.90;;;;;;10200422;28;20455;-48
2021/03/04 11:05:10;;;;;;;4.15;1.38;;;5.40;99.90;;;;;;10209300;28;20534;-48
2021/03/04 11:10:31;;;;;;;3.47;1.13;;;5.20;99.90;;;;;;10219104;28;20051;-49
2021/03/04 11:15:52;;;;;;;2.30;0.82;;;5.20;99.90;;;;;;10212418;28;20500;-49
2021/03/04 11:21:13;;;;;;;3.08;1.00;;;5.30;99.90;;;;;;10210409;28;20059;-49
2021/03/04 11:26:38;;;;;;;5.07;1.30;;;5.30;99.90;;;;;;10213658;28;20039;-49
2021/03/04 11:31:59;;;;;;;4.85;2.05;;;5.50;99.90;;;;;;10212033;28;20058;-49
2021/03/04 11:37:20;;;;;;;3.85;1.20;;;5.50;99.90;;;;;;10208090;28;20040;-49
2021/03/04 11:42:41;;;;;;;2.13;0.90;;;5.60;99.90;;;;;;10205719;29;20516;-49
2021/03/04 11:48:02;;;;;;;3.08;0.95;;;5.70;99.90;;;;;;10202523;29;20059;-49
2021/03/04 11:53:23;;;;;;;2.17;0.82;;;5.80;99.90;;;;;;10201301;29;20060;-49
2021/03/04 11:58:43;;;;;;;3.13;0.63;;;5.80;99.90;;;;;;10214880;28;20434;-49
2021/03/04 12:04:06;;;;;;;1.92;0.98;;;5.90;99.90;;;;;;10204989;29;20055;-49
2021/03/04 12:09:27;;;;;;;2.15;0.63;;;5.90;99.90;;;;;;10198543;28;20051;-49
2021/03/04 12:14:48;;;;;;;1.95;0.68;;;6.00;99.90;;;;;;10214174;28;20035;-49
2021/03/04 12:20:09;;;;;;;2.33;0.50;;;6.00;99.90;;;;;;10212534;28;20051;-49
2021/03/04 12:25:30;;;;;;;0.98;0.45;;;6.20;99.90;;;;;;10198110;29;20083;-49
2021/03/04 12:30:51;;;;;;;1.08;0.73;;;6.30;99.90;;;;;;10234498;28;20261;-49
2021/03/04 12:36:12;;;;;;;1.48;0.90;;;6.50;99.90;;;;;;10234622;29;20027;-49
2021/03/04 12:41:33;;;;;;;1.92;0.45;;;6.40;99.90;;;;;;10203601;28;20090;-49
2021/03/04 12:46:54;;;;;;;1.85;0.60;;;6.40;99.90;;;;;;10221658;29;20511;-49
2021/03/04 12:52:15;;;;;;;1.35;0.50;;;6.40;99.90;;;;;;10236656;28;20039;-49
2021/03/04 12:57:36;;;;;;;1.33;0.65;;;6.50;99.90;;;;;;10221850;29;20055;-49
2021/03/04 13:02:57;;;;;;;4.63;0.63;;;6.60;99.90;;;;;;10210083;29;20031;-49
2021/03/04 13:08:18;;;;;;;1.50;0.45;;;6.80;99.90;;;;;;10210171;28;20050;-49
2021/03/04 13:13:39;;;;;;;1.25;0.38;;;6.90;99.90;;;;;;10206893;28;20085;-49
2021/03/04 13:19:00;;;;;;;2.10;1.02;;;6.80;99.90;;;;;;10212623;29;20039;-49
2021/03/04 13:24:21;;;;;;;1.88;0.80;;;6.70;99.90;;;;;;10204500;28;20126;-49
2021/03/04 13:29:42;;;;;;;2.25;0.98;;;6.50;99.90;;;;;;10200866;29;20067;-49
2021/03/04 13:35:03;;;;;;;3.55;0.60;;;6.30;99.90;;;;;;10218294;28;20399;-49
2021/03/04 13:40:24;;;;;;;2.70;0.93;;;6.30;99.90;;;;;;10203272;28;20047;-49
2021/03/04 13:45:47;;;;;;;3.65;1.00;;;6.40;99.90;;;;;;10206088;28;20090;-49
2021/03/04 13:51:08;;;;;;;1.80;0.80;;;6.40;99.90;;;;;;10200651;28;20499;-49
2021/03/04 13:56:29;;;;;;;1.17;0.35;;;6.40;99.90;;;;;;10204409;28;20035;-49
2021/03/04 14:01:50;;;;;;;1.63;0.50;;;6.70;99.90;;;;;;10204801;28;20043;-49
2021/03/04 14:07:12;;;;;;;3.85;1.52;;;6.60;99.90;;;;;;10207131;28;20673;-49
2021/03/04 14:12:33;;;;;;;7.65;1.08;;;6.60;99.90;;;;;;10210027;28;20151;-49
2021/03/04 14:17:54;;;;;;;2.05;0.82;;;6.70;99.90;;;;;;10198425;29;20054;-49
2021/03/04 14:23:15;;;;;;;1.35;0.40;;;6.60;99.90;;;;;;10208418;28;20253;-49
2021/03/04 14:28:36;;;;;;;1.88;0.70;;;6.50;99.90;;;;;;10201156;28;20142;-49
2021/03/04 14:33:57;;;;;;;1.75;0.65;;;6.50;99.90;;;;;;10207494;28;20047;-49
2021/03/04 14:39:18;;;;;;;4.78;1.30;;;6.40;99.90;;;;;;10205392;28;20043;-49
2021/03/04 14:44:39;;;;;;;1.02;0.50;;;6.30;99.90;;;;;;10206393;28;20086;-49
2021/03/04 14:50:00;;;;;;;2.65;0.90;;;6.30;99.90;;;;;;10203638;28;20142;-49
2021/03/04 14:55:21;;;;;;;0.63;0.30;;;6.20;99.90;;;;;;10209671;28;20411;-49
2021/03/04 15:00:42;;;;;;;1.00;0.75;;;6.20;99.90;;;;;;10207431;28;20495;-49
2021/03/04 15:06:11;;;;;;;0.68;0.30;;;6.00;99.90;;;;;;10199670;28;20574;-49
2021/03/04 15:11:32;;;;;;;5.30;0.65;;;6.00;99.90;;;;;;10205069;28;20188;-49
2021/03/04 15:16:53;;;;;;;4.32;0.30;;;6.10;99.90;;;;;;10211875;28;20222;-49
2021/03/04 15:22:15;;;;;;;1.17;0.30;;;6.20;99.90;;;;;;10202843;28;20057;-49
2021/03/04 15:27:36;;;;;;;4.00;0.28;;;6.30;99.90;;;;;;10207974;28;20047;-49
2021/03/04 15:32:57;;;;;;;1.65;0.47;;;6.40;99.90;;;;;;10229012;28;20043;-49
2021/03/04 15:38:18;;;;;;;7.55;0.43;;;6.40;99.90;;;;;;10208159;28;20038;-49
2021/03/04 15:43:39;;;;;;;4.28;0.22;;;6.30;99.90;;;;;;10206604;28;20510;-49
2021/03/04 15:49:01;;;;;;;6.93;0.43;;;6.30;99.90;;;;;;10204575;28;20486;-50
2021/03/04 15:54:22;;;;;;;1.40;0.20;;;6.20;99.90;;;;;;10213127;28;20499;-49
2021/03/04 15:59:43;;;;;;;1.25;0.47;;;6.20;99.90;;;;;;10188577;28;20081;-49
2021/03/04 16:05:05;;;;;;;1.55;0.20;;;6.10;99.90;;;;;;10206517;28;20672;-49
2021/03/04 16:10:26;;;;;;;0.40;0.20;;;6.10;99.90;;;;;;10208308;28;20252;-49
2021/03/04 16:15:47;;;;;;;3.63;1.10;;;6.10;99.90;;;;;;10207348;28;20055;-49
2021/03/04 16:21:08;;;;;;;4.13;0.35;;;6.10;99.90;;;;;;10207671;28;20048;-49
2021/03/04 16:26:29;;;;;;;3.50;0.50;;;6.00;99.90;;;;;;10206890;28;20517;-49
2021/03/04 16:31:53;;;;;;;4.50;0.70;;;6.00;99.90;;;;;;10208785;28;20078;-49
2021/03/04 16:37:14;;;;;;;2.03;0.57;;;5.80;99.90;;;;;;10202264;28;20050;-49
2021/03/04 16:42:35;;;;;;;3.53;0.88;;;5.80;99.90;;;;;;10195057;28;21387;-49
2021/03/04 16:47:57;;;;;;;3.00;0.90;;;5.80;99.90;;;;;;10206620;28;20960;-49
2021/03/04 16:53:18;;;;;;;0.88;0.60;;;5.70;99.90;;;;;;10206837;28;20039;-49
2021/03/04 16:58:39;;;;;;;2.30;0.73;;;5.70;99.90;;;;;;10200958;28;20493;-49
2021/03/04 17:04:00;;;;;;;2.05;0.55;;;5.70;99.90;;;;;;10192438;28;20058;-49
2021/03/04 17:09:22;;;;;;;6.25;0.63;;;5.70;99.90;;;;;;10196876;28;20043;-49
2021/03/04 17:14:43;;;;;;;1.75;0.60;;;5.70;99.90;;;;;;10198643;28;20531;-49
2021/03/04 17:20:05;;;;;;;3.00;0.55;;;5.60;99.90;;;;;;10180830;28;20058;-49
2021/03/04 17:25:27;;;;;;;8.05;0.45;;;5.60;99.90;;;;;;10178360;28;20047;-49
2021/03/04 17:30:49;;;;;;;0.85;0.50;;;5.60;99.90;;;;;;10185941;28;20105;-49
2021/03/04 17:36:10;;;;;;;1.25;0.60;;;5.50;99.90;;;;;;10182790;28;20134;-49
2021/03/04 17:41:32;;;;;;;5.32;0.60;;;5.50;99.90;;;;;;10176833;28;20647;-49
2021/03/04 17:46:53;;;;;;;1.52;0.47;;;5.40;99.90;;;;;;10180475;28;20043;-49
2021/03/04 17:52:14;;;;;;;10.98;1.10;;;5.40;99.90;;;;;;10176343;28;20046;-49
2021/03/04 17:57:35;;;;;;;16.75;1.95;;;5.40;99.90;;;;;;10166973;28;20440;-49
2021/03/04 18:02:57;;;;;;;5.38;1.33;;;5.30;99.90;;;;;;10179087;28;20114;-49
2021/03/04 18:08:19;;;;;;;3.65;1.23;;;5.40;99.90;;;;;;10182231;28;20043;-49
2021/03/04 18:13:40;;;;;;;6.28;1.20;;;5.30;99.90;;;;;;10180534;28;20536;-49
2021/03/04 18:19:02;;;;;;;2.05;0.80;;;5.20;99.90;;;;;;10180800;28;20138;-49
2021/03/04 18:24:23;;;;;;;5.13;2.47;;;5.10;99.90;;;;;;10179882;28;20546;-49
2021/03/04 18:29:45;;;;;;;3.47;1.75;;;5.10;99.90;;;;;;10180317;28;20048;-49
2021/03/04 18:35:06;;;;;;;3.65;0.77;;;5.10;99.90;;;;;;10184136;28;20051;-49
2021/03/04 18:40:27;;;;;;;7.53;1.95;;;5.10;99.90;;;;;;10177263;28;20222;-49
2021/03/04 18:45:48;;;;;;;3.30;1.25;;;5.00;99.90;;;;;;10179511;28;20542;-49
2021/03/04 18:51:09;;;;;;;5.97;1.00;;;4.90;99.90;;;;;;10174407;28;20042;-49
2021/03/04 18:56:31;;;;;;;4.78;0.98;;;4.90;99.90;;;;;;10179993;28;20043;-49
2021/03/04 19:01:52;;;;;;;4.82;0.70;;;4.90;99.90;;;;;;10178645;28;20046;-49
2021/03/04 19:07:13;;;;;;;13.43;3.00;;;4.80;99.90;;;;;;10182140;28;20039;-49
2021/03/04 19:12:34;;;;;;;2.83;1.17;;;4.90;99.90;;;;;;10181570;28;20039;-49
2021/03/04 19:17:55;;;;;;;5.63;1.38;;;4.90;99.90;;;;;;10187641;28;20032;-48
2021/03/04 19:23:16;;;;;;;2.13;0.70;;;4.90;99.90;;;;;;10160237;28;20102;-49
2021/03/04 19:28:37;;;;;;;0.45;0.20;;;4.90;99.90;;;;;;10188504;28;20138;-49
2021/03/04 19:33:58;;;;;;;2.45;0.68;;;4.80;99.90;;;;;;10183554;28;20039;-48
2021/03/04 19:39:19;;;;;;;2.00;0.75;;;4.80;99.90;;;;;;10192638;28;20044;-49
2021/03/04 19:44:40;;;;;;;2.78;1.60;;;4.90;99.90;;;;;;10190458;28;20363;-49
2021/03/04 19:50:03;;;;;;;8.32;1.02;;;4.80;99.90;;;;;;10188300;28;20404;-48
2021/03/04 19:55:24;;;;;;;2.15;0.45;;;4.70;99.90;;;;;;10185576;28;20126;-49
2021/03/04 20:00:45;;;;;;;8.35;1.63;;;4.80;99.90;;;;;;10183652;28;20043;-48
2021/03/04 20:06:06;;;;;;;7.22;2.05;;;4.80;99.90;;;;;;10182067;28;20043;-48
2021/03/04 20:11:28;;;;;;;5.28;1.67;;;4.80;99.90;;;;;;10186755;28;20040;-49
2021/03/04 20:16:48;;;;;;;2.42;0.45;;;4.80;99.90;;;;;;10190227;28;20079;-48
2021/03/04 20:22:09;;;;;;;1.25;0.30;;;4.70;99.90;;;;;;10187379;28;20043;-49
2021/03/04 20:27:30;;;;;;;1.13;0.20;;;4.70;99.90;;;;;;10192768;28;20134;-49
2021/03/04 20:32:52;;;;;;;15.85;0.77;;;4.70;99.90;;;;;;10190896;28;20713;-49
2021/03/04 20:38:13;;;;;;;3.08;1.27;;;4.60;99.90;;;;;;10189515;28;20170;-49
2021/03/04 20:43:35;;;;;;;0.65;0.25;;;4.60;99.90;;;;;;10190867;28;20043;-49
2021/03/04 20:48:56;;;;;;;1.15;0.20;;;4.60;99.90;;;;;;10187796;28;20043;-49
2021/03/04 20:54:17;;;;;;;2.13;0.82;;;4.60;99.90;;;;;;10188394;28;20051;-49
2021/03/04 20:59:38;;;;;;;2.22;0.55;;;4.60;99.90;;;;;;10190271;28;20164;-49
2021/03/04 21:04:59;;;;;;;4.97;0.75;;;4.60;99.90;;;;;;10183859;28;20031;-49
2021/03/04 21:10:20;;;;;;;3.08;0.52;;;4.60;99.90;;;;;;10175711;28;20048;-49
2021/03/04 21:15:41;;;;;;;3.38;0.57;;;4.50;99.90;;;;;;10189212;28;20581;-49
2021/03/04 21:21:02;;;;;;;2.22;0.40;;;4.50;99.90;;;;;;10176321;28;20357;-49
2021/03/04 21:26:23;;;;;;;1.60;0.30;;;4.50;99.90;;;;;;10149716;29;20434;-49
2021/03/04 21:31:44;;;;;;;6.45;0.73;;;4.50;99.90;;;;;;10145921;28;20054;-49
2021/03/04 21:37:05;;;;;;;5.38;0.47;;;4.50;99.90;;;;;;10148442;28;20032;-48
2021/03/04 21:42:26;;;;;;;4.47;0.55;;;4.50;99.90;;;;;;10147185;28;20178;-49
2021/03/04 21:47:47;;;;;;;5.70;0.52;;;4.50;99.90;;;;;;10143619;28;20039;-49
2021/03/04 21:53:08;;;;;;;4.45;0.60;;;4.60;99.90;;;;;;10138222;28;20129;-49
2021/03/04 21:58:29;;;;;;;3.28;1.45;;;4.60;99.90;;;;;;10143377;28;20180;-49
2021/03/04 22:03:50;;;;;;;3.97;0.73;;;4.60;99.90;;;;;;10143827;28;20039;-48
2021/03/04 22:09:11;;;;;;;0.22;0.08;;;4.60;99.90;;;;;;10144613;28;20040;-49
2021/03/04 22:14:32;;;;;;;0.95;0.40;;;4.60;99.90;;;;;;10143863;28;20455;-49
2021/03/04 22:19:53;;;;;;;0.95;0.35;;;4.50;99.90;;;;;;10147486;28;20048;-49
2021/03/04 22:25:15;;;;;;;1.27;0.40;;;4.60;99.90;;;;;;10175382;28;20058;-49
2021/03/04 22:30:36;;;;;;;1.13;0.50;;;4.50;99.90;;;;;;10178909;28;20043;-49
2021/03/04 22:35:57;;;;;;;1.60;0.80;;;4.40;99.90;;;;;;10182244;28;20046;-49
2021/03/04 22:41:18;;;;;;;5.43;1.70;;;4.40;99.90;;;;;;10179824;28;20085;-49
2021/03/04 22:46:39;;;;;;;3.15;0.65;;;4.40;99.90;;;;;;10183043;28;20739;-48
2021/03/04 22:52:01;;;;;;;2.92;1.15;;;4.50;99.90;;;;;;10182962;28;20596;-49
2021/03/04 22:57:22;;;;;;;3.22;1.55;;;4.30;99.90;;;;;;10200528;28;20407;-49
2021/03/04 23:02:43;;;;;;;6.30;1.20;;;4.50;99.90;;;;;;10207789;28;20101;-48
2021/03/04 23:08:05;;;;;;;2.45;0.73;;;4.50;99.90;;;;;;10213767;28;20032;-49
2021/03/04 23:13:26;;;;;;;3.67;1.27;;;4.40;99.90;;;;;;10213303;28;20044;-49
2021/03/04 23:18:47;;;;;;;3.92;1.25;;;4.40;99.90;;;;;;10216228;28;20090;-48
2021/03/04 23:24:09;;;;;;;2.25;0.90;;;4.40;99.90;;;;;;10210113;28;20036;-49
2021/03/04 23:29:30;;;;;;;3.80;1.20;;;4.40;99.90;;;;;;10210058;28;20084;-48
2021/03/04 23:34:51;;;;;;;4.43;1.40;;;4.40;99.90;;;;;;10210712;28;20098;-48
2021/03/04 23:40:37;;;;;;;3.17;1.00;;;4.50;99.90;;;;;;10214960;28;20178;-48
2021/03/04 23:45:58;;;;;;;1.65;0.85;;;4.50;99.90;;;;;;10212333;28;20053;-48
2021/03/04 23:51:19;;;;;;;4.05;1.67;;;4.40;99.90;;;;;;10208422;28;20617;-48
2021/03/04 23:56:40;;;;;;;2.75;1.38;;;4.40;99.90;;;;;;10204738;28;20067;-48
